createdAt,value
2022-11-05T00:00:42.706Z,99561.05
2022-11-05T00:04:08.961Z,99562.61
2022-11-05T00:07:34.390Z,99566.52
2022-11-05T00:10:40.218Z,99570.83
2022-11-05T00:14:12.897Z,99571.98
2022-11-05T00:17:18.475Z,99570.06
2022-11-05T00:20:26.183Z,99567.61
2022-11-05T00:23:49.451Z,99573.42
2022-11-05T00:26:55.294Z,99576.21
2022-11-05T00:30:00.940Z,99576.43
2022-11-05T00:33:06.758Z,99577.52
2022-11-05T00:36:12.607Z,99576.63
2022-11-05T00:39:18.607Z,99581.31
2022-11-05T00:42:42.022Z,99583.70
2022-11-05T00:45:47.412Z,99584.69
2022-11-05T00:49:10.721Z,99587.42
2022-11-05T00:52:36.767Z,99585.29
2022-11-05T00:55:43.027Z,99588.16
2022-11-05T00:58:48.984Z,99590.61
2022-11-05T01:01:55.414Z,99595.15
2022-11-05T01:05:01.057Z,99596.09
2022-11-05T01:08:06.748Z,99593.55
2022-11-05T01:11:13.267Z,99592.72
2022-11-05T01:14:18.945Z,99599.33
2022-11-05T01:17:24.439Z,99597.04
2022-11-05T01:20:29.910Z,99602.58
2022-11-05T01:23:35.300Z,99600.79
2022-11-05T01:26:40.751Z,99607.51
2022-11-05T01:29:46.182Z,99605.97
2022-11-05T01:32:51.482Z,99609.77
2022-11-05T01:35:57.009Z,99614.06
2022-11-05T01:39:03.635Z,99623.61
2022-11-05T01:42:15.121Z,99622.76
2022-11-05T01:45:22.186Z,99631.59
2022-11-05T01:48:30.940Z,99627.33
2022-11-05T01:51:36.396Z,99634.45
2022-11-05T01:54:42.018Z,99640.92
2022-11-05T01:57:47.595Z,99641.77
2022-11-05T02:00:53.678Z,99650.48
2022-11-05T02:04:01.062Z,99656.13
2022-11-05T02:07:10.573Z,99658.80
2022-11-05T02:10:18.181Z,99662.66
2022-11-05T02:13:23.615Z,99675.92
2022-11-05T02:16:37.175Z,99676.86
2022-11-05T02:20:05.111Z,99677.52
2022-11-05T02:23:24.152Z,99678.75
2022-11-05T02:26:46.262Z,99680.17
2022-11-05T02:30:01.370Z,99680.42
2022-11-05T02:33:17.915Z,99682.81
2022-11-05T02:36:29.778Z,99685.64
2022-11-05T02:39:40.302Z,99687.02
2022-11-05T02:42:55.973Z,99688.62
2022-11-05T02:46:04.740Z,99689.65
2022-11-05T02:49:15.731Z,99683.73
2022-11-05T02:52:24.709Z,99686.56
2022-11-05T02:55:34.011Z,99688.02
2022-11-05T02:58:39.512Z,99691.49
2022-11-05T03:01:47.073Z,99692.82
2022-11-05T03:04:52.652Z,99699.42
2022-11-05T03:08:04.054Z,99704.42
2022-11-05T03:11:14.433Z,99704.25
2022-11-05T03:14:24.359Z,99709.45
2022-11-05T03:17:35.186Z,99710.87
2022-11-05T03:20:45.473Z,99718.01
2022-11-05T03:23:56.181Z,99724.39
2022-11-05T03:27:03.914Z,99730.19
2022-11-05T03:30:11.986Z,99739.94
2022-11-05T03:33:21.816Z,99745.22
2022-11-05T03:36:30.736Z,99754.21
2022-11-05T03:39:40.018Z,99756.95
2022-11-05T03:42:49.005Z,99762.65
2022-11-05T03:45:57.477Z,99767.61
2022-11-05T03:49:04.408Z,99772.79
2022-11-05T03:52:12.606Z,99775.63
2022-11-05T03:55:18.267Z,99777.90
2022-11-05T03:58:24.935Z,99787.46
2022-11-05T04:01:33.067Z,99789.88
2022-11-05T04:04:38.825Z,99792.13
2022-11-05T04:08:03.065Z,99799.48
2022-11-05T04:11:29.856Z,99805.31
2022-11-05T04:14:44.315Z,99814.75
2022-11-05T04:17:50.940Z,99816.77
2022-11-05T04:21:14.101Z,99820.58
2022-11-05T04:24:19.758Z,99819.42
2022-11-05T04:27:25.327Z,99817.65
2022-11-05T04:30:30.843Z,99826.41
2022-11-05T04:33:36.178Z,99833.20
2022-11-05T04:36:41.575Z,99833.77
2022-11-05T04:39:47.090Z,99837.22
2022-11-05T04:42:54.324Z,99839.55
2022-11-05T04:45:59.709Z,99840.13
2022-11-05T04:49:05.055Z,99841.35
2022-11-05T04:52:10.492Z,99839.17
2022-11-05T04:55:16.604Z,99847.23
2022-11-05T04:58:22.167Z,99847.52
2022-11-05T05:01:27.748Z,99858.75
2022-11-05T05:04:37.050Z,99867.81
2022-11-05T05:07:42.905Z,99879.42
2022-11-05T05:10:48.603Z,99877.79
2022-11-05T05:13:58.894Z,99889.65
2022-11-05T05:17:07.207Z,99900.41
2022-11-05T05:20:30.472Z,99911.15
2022-11-05T05:23:37.118Z,99909.91
2022-11-05T05:26:44.006Z,99908.13
2022-11-05T05:29:49.616Z,99907.80
2022-11-05T05:32:55.029Z,99908.49
2022-11-05T05:36:04.699Z,99920.92
2022-11-05T05:39:14.236Z,99925.77
2022-11-05T05:42:21.480Z,99934.36
2022-11-05T05:45:27.431Z,99943.96
2022-11-05T05:48:33.271Z,99956.18
2022-11-05T05:51:41.848Z,99971.66
2022-11-05T05:54:47.234Z,99976.40
2022-11-05T05:57:53.893Z,99981.07
2022-11-05T06:01:04.471Z,99991.19
2022-11-05T06:04:12.840Z,99992.87
2022-11-05T06:07:18.309Z,99997.19
2022-11-05T06:10:24.014Z,100007.64
2022-11-05T06:13:30.114Z,100016.44
2022-11-05T06:16:39.143Z,100019.66
2022-11-05T06:19:45.417Z,100022.13
2022-11-05T06:22:57.511Z,100026.44
2022-11-05T06:26:03.304Z,100043.05
2022-11-05T06:29:08.803Z,100050.70
2022-11-05T06:32:15.925Z,100053.07
2022-11-05T06:35:21.524Z,100053.31
2022-11-05T06:38:26.919Z,100054.39
2022-11-05T06:41:45.654Z,100063.32
2022-11-05T06:44:57.850Z,100072.33
2022-11-05T06:48:03.155Z,100077.52
2022-11-05T06:51:08.975Z,100077.77
2022-11-05T06:54:17.455Z,100077.75
2022-11-05T06:57:22.928Z,100074.75
2022-11-05T07:00:28.967Z,100080.85
2022-11-05T07:03:34.669Z,100096.79
2022-11-05T07:06:40.246Z,100106.14
2022-11-05T07:09:48.159Z,100112.14
2022-11-05T07:12:54.844Z,100118.74
2022-11-05T07:16:03.473Z,100126.69
2022-11-05T07:19:10.678Z,100129.54
2022-11-05T07:22:20.942Z,100127.56
2022-11-05T07:25:26.949Z,100125.85
2022-11-05T07:28:32.447Z,100135.20
2022-11-05T07:31:37.888Z,100142.40
2022-11-05T07:34:43.246Z,100152.15
2022-11-05T07:37:49.524Z,100155.91
2022-11-05T07:40:55.158Z,100150.33
2022-11-05T07:44:01.483Z,100148.98
2022-11-05T07:47:07.109Z,100152.95
2022-11-05T07:50:14.351Z,100147.86
2022-11-05T07:53:20.998Z,100139.13
2022-11-05T07:56:26.473Z,100144.66
2022-11-05T07:59:32.056Z,100154.20
2022-11-05T08:02:37.861Z,100161.11
2022-11-05T08:05:44.828Z,100165.38
2022-11-05T08:08:50.292Z,100160.34
2022-11-05T08:12:02.600Z,100151.52
2022-11-05T08:15:10.486Z,100149.10
2022-11-05T08:18:18.344Z,100157.94
2022-11-05T08:21:23.848Z,100173.40
2022-11-05T08:24:29.353Z,100180.94
2022-11-05T08:27:34.893Z,100192.98
2022-11-05T08:30:40.607Z,100201.14
2022-11-05T08:33:46.082Z,100214.66
2022-11-05T08:36:51.644Z,100216.59
2022-11-05T08:39:57.047Z,100222.80
2022-11-05T08:43:03.329Z,100227.59
2022-11-05T08:46:08.669Z,100231.56
2022-11-05T08:49:14.657Z,100237.26
2022-11-05T08:52:20.207Z,100245.00
2022-11-05T08:55:28.671Z,100251.10
2022-11-05T08:58:34.142Z,100256.64
2022-11-05T09:01:39.759Z,100266.77
2022-11-05T09:04:47.790Z,100269.29
2022-11-05T09:07:59.428Z,100273.96
2022-11-05T09:11:06.963Z,100282.17
2022-11-05T09:14:12.623Z,100285.69
2022-11-05T09:17:18.913Z,100296.42
2022-11-05T09:20:24.848Z,100300.17
2022-11-05T09:23:30.280Z,100307.12
2022-11-05T09:26:35.488Z,100317.25
2022-11-05T09:29:41.062Z,100324.48
2022-11-05T09:32:46.834Z,100328.52
2022-11-05T09:35:52.884Z,100326.68
2022-11-05T09:38:58.420Z,100327.31
2022-11-05T09:42:05.704Z,100321.76
2022-11-05T09:48:34.586Z,100326.27
2022-11-05T09:51:42.160Z,100334.02
2022-11-05T09:54:48.809Z,100345.29
2022-11-05T09:57:58.585Z,100349.38
2022-11-05T10:01:04.860Z,100349.30
2022-11-05T10:04:11.355Z,100352.69
2022-11-05T10:07:20.014Z,100356.17
2022-11-05T10:10:40.774Z,100359.96
2022-11-05T10:13:48.593Z,100358.65
2022-11-05T10:16:57.460Z,100361.82
2022-11-05T10:20:12.011Z,100360.20
2022-11-05T10:23:20.331Z,100366.66
2022-11-05T10:26:28.125Z,100366.13
2022-11-05T10:29:36.177Z,100367.23
2022-11-05T10:32:43.173Z,100370.55
2022-11-05T10:35:51.310Z,100379.67
2022-11-05T10:39:00.097Z,100381.41
2022-11-05T10:42:20.614Z,100382.44
2022-11-05T10:45:32.009Z,100386.11
2022-11-05T10:48:45.003Z,100387.35
2022-11-05T10:51:54.561Z,100388.30
2022-11-05T10:55:04.175Z,100402.19
2022-11-05T10:58:11.301Z,100407.67
2022-11-05T11:01:16.683Z,100416.61
2022-11-05T11:04:24.107Z,100417.84
2022-11-05T11:07:29.709Z,100420.85
2022-11-05T11:10:38.701Z,100422.48
2022-11-05T11:13:59.674Z,100423.58
2022-11-05T11:17:27.932Z,100425.12
2022-11-05T11:20:34.995Z,100431.50
2022-11-05T11:23:44.633Z,100431.80
2022-11-05T11:26:50.221Z,100429.96
2022-11-05T11:29:59.732Z,100426.52
2022-11-05T11:33:10.243Z,100430.08
2022-11-05T11:36:19.330Z,100431.59
2022-11-05T11:39:26.593Z,100437.02
2022-11-05T11:42:34.604Z,100438.20
2022-11-05T11:45:46.739Z,100433.48
2022-11-05T11:48:52.569Z,100435.77
2022-11-05T11:52:01.050Z,100442.52
2022-11-05T11:55:18.230Z,100444.46
2022-11-05T11:58:24.247Z,100450.11
2022-11-05T12:01:47.471Z,100449.91
2022-11-05T12:05:00.640Z,100447.33
2022-11-05T12:08:14.516Z,100450.80
2022-11-05T12:11:28.185Z,100456.15
2022-11-05T12:14:42.321Z,100455.36
2022-11-05T12:17:54.478Z,100456.56
2022-11-05T12:21:06.205Z,100459.26
2022-11-05T12:24:20.946Z,100459.95
2022-11-05T12:27:34.639Z,100458.52
2022-11-05T12:30:47.860Z,100458.63
2022-11-05T12:33:58.341Z,100465.18
2022-11-05T12:37:11.708Z,100465.52
2022-11-05T12:40:28.920Z,100468.14
2022-11-05T12:43:40.168Z,100477.34
2022-11-05T12:46:52.071Z,100477.02
2022-11-05T12:50:11.672Z,100475.35
2022-11-05T12:53:28.112Z,100479.23
2022-11-05T12:56:37.053Z,100488.24
2022-11-05T12:59:44.696Z,100490.80
2022-11-05T13:02:52.353Z,100491.27
2022-11-05T13:06:05.495Z,100490.71
2022-11-05T13:09:14.430Z,100489.00
2022-11-05T13:12:23.638Z,100490.64
2022-11-05T13:15:32.916Z,100495.52
2022-11-05T13:18:41.345Z,100502.28
2022-11-05T13:21:53.213Z,100505.65
2022-11-05T13:25:00.281Z,100507.11
2022-11-05T13:28:11.762Z,100510.32
2022-11-05T13:31:19.756Z,100513.39
2022-11-05T13:34:25.185Z,100514.75
2022-11-05T13:37:53.688Z,100515.30
2022-11-05T13:41:06.710Z,100517.73
2022-11-05T13:44:26.399Z,100521.91
2022-11-05T13:47:38.215Z,100518.46
2022-11-05T13:50:55.614Z,100517.61
2022-11-05T13:54:23.435Z,100519.02
2022-11-05T13:57:34.416Z,100520.96
2022-11-05T14:00:44.320Z,100519.63
2022-11-05T14:03:50.845Z,100519.29
2022-11-05T14:07:06.106Z,100518.66
2022-11-05T14:10:15.979Z,100521.65
2022-11-05T14:13:24.787Z,100535.70
2022-11-05T14:16:41.770Z,100537.41
2022-11-05T14:20:08.027Z,100547.54
2022-11-05T14:23:26.920Z,100554.24
2022-11-05T14:26:33.180Z,100559.66
2022-11-05T14:29:44.639Z,100558.64
2022-11-05T14:32:50.816Z,100565.83
2022-11-05T14:36:12.758Z,100566.63
2022-11-05T14:39:22.469Z,100568.56
2022-11-05T14:42:32.575Z,100567.36
2022-11-05T14:45:39.181Z,100565.94
2022-11-05T14:48:48.161Z,100565.61
2022-11-05T14:51:54.733Z,100565.54
2022-11-05T14:55:00.215Z,100573.80
2022-11-05T14:58:07.694Z,100581.59
2022-11-05T15:01:33.399Z,100582.70
2022-11-05T15:04:42.842Z,100586.60
2022-11-05T15:07:57.219Z,100588.33
2022-11-05T15:11:10.220Z,100597.35
2022-11-05T15:14:22.196Z,100604.14
2022-11-05T15:17:30.930Z,100612.95
2022-11-05T15:20:40.447Z,100609.45
2022-11-05T15:23:47.218Z,100608.60
2022-11-05T15:26:57.365Z,100610.57
2022-11-05T15:30:06.503Z,100610.60
2022-11-05T15:33:17.903Z,100615.39
2022-11-05T15:36:27.355Z,100618.54
2022-11-05T15:39:37.888Z,100617.98
2022-11-05T15:42:45.556Z,100613.77
2022-11-05T15:46:04.126Z,100618.55
2022-11-05T15:49:12.962Z,100626.36
2022-11-05T15:52:19.503Z,100632.90
2022-11-05T15:55:26.329Z,100635.50
2022-11-05T15:58:32.262Z,100640.77
2022-11-05T16:01:38.646Z,100648.80
2022-11-05T16:04:48.657Z,100654.52
2022-11-05T16:07:54.183Z,100657.20
2022-11-05T16:11:00.630Z,100657.48
2022-11-05T16:14:18.281Z,100659.99
2022-11-05T16:17:24.406Z,100661.18
2022-11-05T16:20:32.292Z,100661.26
2022-11-05T16:23:45.696Z,100660.30
2022-11-05T16:27:03.466Z,100662.85
2022-11-05T16:30:18.274Z,100664.97
2022-11-05T16:33:26.450Z,100675.77
2022-11-05T16:36:32.512Z,100686.64
2022-11-05T16:39:38.237Z,100690.05
2022-11-05T16:42:48.365Z,100693.83
2022-11-05T16:45:55.873Z,100697.61
2022-11-05T16:49:01.245Z,100703.40
2022-11-05T16:52:09.895Z,100704.04
2022-11-05T16:55:17.358Z,100708.41
2022-11-05T16:58:24.191Z,100706.00
2022-11-05T17:01:29.997Z,100711.77
2022-11-05T17:04:38.444Z,100708.17
2022-11-05T17:07:43.881Z,100709.71
2022-11-05T17:10:49.359Z,100713.75
2022-11-05T17:13:54.942Z,100724.08
2022-11-05T17:17:02.493Z,100728.20
2022-11-05T17:20:11.187Z,100731.46
2022-11-05T17:23:17.712Z,100734.56
2022-11-05T17:26:23.820Z,100741.20
2022-11-05T17:29:29.248Z,100739.27
2022-11-05T17:32:34.767Z,100738.08
2022-11-05T17:35:40.661Z,100741.03
2022-11-05T17:38:46.312Z,100746.02
2022-11-05T17:41:52.337Z,100753.77
2022-11-05T17:45:00.719Z,100758.33
2022-11-05T17:48:06.483Z,100759.56
2022-11-05T17:51:13.219Z,100763.06
2022-11-05T17:54:18.669Z,100768.35
2022-11-05T17:57:24.517Z,100772.71
2022-11-05T18:00:30.052Z,100782.24
2022-11-05T18:03:35.850Z,100789.89
2022-11-05T18:06:42.100Z,100789.92
2022-11-05T18:09:47.565Z,100787.98
2022-11-05T18:12:54.427Z,100797.13
2022-11-05T18:15:59.923Z,100800.87
2022-11-05T18:19:05.810Z,100802.34
2022-11-05T18:22:11.238Z,100805.67
2022-11-05T18:25:16.735Z,100804.64
2022-11-05T18:28:22.319Z,100802.17
2022-11-05T18:31:27.922Z,100804.14
2022-11-05T18:34:33.707Z,100814.45
2022-11-05T18:37:40.063Z,100816.59
2022-11-05T18:40:45.461Z,100820.91
2022-11-05T18:43:50.771Z,100823.54
2022-11-05T18:46:58.674Z,100816.84
2022-11-05T18:50:18.463Z,100821.25
2022-11-05T18:53:23.803Z,100822.27
2022-11-05T18:56:29.159Z,100818.53
2022-11-05T18:59:38.603Z,100812.31
2022-11-05T19:02:44.968Z,100811.52
2022-11-05T19:05:50.642Z,100812.55
2022-11-05T19:08:56.250Z,100819.59
2022-11-05T19:12:03.459Z,100825.30
2022-11-05T19:15:10.089Z,100823.64
2022-11-05T19:18:15.719Z,100825.90
2022-11-05T19:21:22.631Z,100827.41
2022-11-05T19:24:28.306Z,100830.67
2022-11-05T19:27:36.791Z,100825.98
2022-11-05T19:30:42.280Z,100827.36
2022-11-05T19:33:49.967Z,100830.04
2022-11-05T19:36:55.471Z,100835.38
2022-11-05T19:40:03.341Z,100837.81
2022-11-05T19:43:10.050Z,100844.84
2022-11-05T19:46:16.581Z,100841.80
2022-11-05T19:49:23.943Z,100843.95
2022-11-05T19:52:29.372Z,100848.17
2022-11-05T19:55:34.851Z,100848.80
2022-11-05T19:58:40.226Z,100848.57
2022-11-05T20:01:46.008Z,100855.27
2022-11-05T20:04:51.757Z,100864.33
2022-11-05T20:07:57.692Z,100868.87
2022-11-05T20:11:03.373Z,100872.66
2022-11-05T20:14:11.947Z,100881.11
2022-11-05T20:17:18.017Z,100880.66
2022-11-05T20:20:25.922Z,100884.45
2022-11-05T20:23:33.668Z,100889.90
2022-11-05T20:26:43.344Z,100888.16
2022-11-05T20:29:56.145Z,100891.11
2022-11-05T20:33:01.558Z,100893.08
2022-11-05T20:36:08.087Z,100890.09
2022-11-05T20:39:15.644Z,100893.20
2022-11-05T20:42:22.424Z,100892.13
2022-11-05T20:45:27.920Z,100891.23
2022-11-05T20:48:34.313Z,100891.77
2022-11-05T20:51:39.751Z,100889.39
2022-11-05T20:54:45.389Z,100888.52
2022-11-05T20:57:50.851Z,100891.10
2022-11-05T21:01:00.977Z,100891.08
2022-11-05T21:04:06.802Z,100894.89
2022-11-05T21:07:12.595Z,100896.34
2022-11-05T21:10:21.743Z,100905.11
2022-11-05T21:13:27.463Z,100907.11
2022-11-05T21:16:33.220Z,100902.09
2022-11-05T21:19:39.066Z,100901.46
2022-11-05T21:22:45.638Z,100903.14
2022-11-05T21:25:51.620Z,100907.52
2022-11-05T21:28:57.094Z,100912.35
2022-11-05T21:32:04.516Z,100917.67
2022-11-05T21:35:10.276Z,100919.60
2022-11-05T21:38:16.639Z,100915.81
2022-11-05T21:41:23.501Z,100914.19
2022-11-05T21:44:29.083Z,100912.89
2022-11-05T21:47:34.504Z,100910.25
2022-11-05T21:50:58.520Z,100911.52
2022-11-05T21:54:21.598Z,100914.89
2022-11-05T21:57:44.610Z,100913.72
2022-11-05T22:00:52.723Z,100911.47
2022-11-05T22:04:03.770Z,100909.19
2022-11-05T22:07:09.904Z,100911.66
2022-11-05T22:10:16.590Z,100907.97
2022-11-05T22:13:22.404Z,100906.98
2022-11-05T22:16:27.822Z,100911.11
2022-11-05T22:19:33.690Z,100914.09
2022-11-05T22:22:40.384Z,100915.15
2022-11-05T22:25:45.767Z,100914.89
2022-11-05T22:28:53.820Z,100914.70
2022-11-05T22:31:59.424Z,100918.45
2022-11-05T22:35:05.146Z,100914.90
2022-11-05T22:38:12.916Z,100916.87
2022-11-05T22:41:22.518Z,100918.14
2022-11-05T22:44:29.208Z,100918.90
2022-11-05T22:47:34.481Z,100914.67
2022-11-05T22:50:40.143Z,100911.38
2022-11-05T22:53:45.956Z,100916.23
2022-11-05T22:56:52.666Z,100917.38
2022-11-05T23:00:00.517Z,100917.81
2022-11-05T23:03:06.341Z,100918.86
2022-11-05T23:06:36.203Z,100922.87
2022-11-05T23:09:59.297Z,100924.13
2022-11-05T23:13:05.246Z,100922.83
2022-11-05T23:16:28.307Z,100916.58
2022-11-05T23:19:52.706Z,100919.94
2022-11-05T23:23:15.808Z,100928.06
2022-11-05T23:26:39.074Z,100924.85
2022-11-05T23:29:44.666Z,100925.45
2022-11-05T23:32:50.447Z,100923.11
2022-11-05T23:36:13.489Z,100919.99
2022-11-05T23:39:19.091Z,100917.61
2022-11-05T23:42:42.435Z,100920.15
2022-11-05T23:46:05.382Z,100917.92
2022-11-05T23:49:13.853Z,100918.95
2022-11-05T23:52:19.553Z,100925.67
2022-11-05T23:55:25.673Z,100928.73
2022-11-05T23:58:31.146Z,100931.52
